Flugplatz Linkenheim

Für EDRI sind keine METAR/TAF Berichte vorhanden.
Es werden die Flugwettermeldungen vom Flugplatz Mannheim-City in 37 km Entfernung angezeigt.

Bericht für EDFM

vom 07.08. um 17:50 UTC

Wind 5 kt aus 140°

Sichtweite 10 km oder mehr

gute Sicht, keine Wolken < 5000 ft, keine CB, keine Wettererscheinungen (CAVOK)

Temperatur 33.0°C

Taupunkt 15.0°C

Luftfeuchtigkeit 34%

Luftdruck 1018 hPa

EDFM 071750Z 14005KT 100V180 CAVOK 33/15 Q1018

Prognose für EDFM

vom 07.08. um 17:00 UTC

Zwischen 18:00 UTC und 21:00 UTC

Wind 4 kt aus 70°

Sichtweite 10 km oder mehr

keine signifikanten Wettererscheinungen

keine Wolken

TAF EDFM 071700Z 0718/0721 07004KT CAVOK
Impressum